sensor_id;sensor_type;location;lat;lon;timestamp;temperature;humidity
3648;DHT22;1840;48.892;15.312;2023-07-22T00:01:43;14.60;97.70
3648;DHT22;1840;48.892;15.312;2023-07-22T00:04:11;14.70;97.50
3648;DHT22;1840;48.892;15.312;2023-07-22T00:06:39;14.80;97.30
3648;DHT22;1840;48.892;15.312;2023-07-22T00:09:07;14.60;97.60
3648;DHT22;1840;48.892;15.312;2023-07-22T00:11:36;14.60;97.70
3648;DHT22;1840;48.892;15.312;2023-07-22T00:14:04;14.60;97.80
3648;DHT22;1840;48.892;15.312;2023-07-22T00:16:34;14.70;97.80
3648;DHT22;1840;48.892;15.312;2023-07-22T00:19:02;14.70;97.50
3648;DHT22;1840;48.892;15.312;2023-07-22T00:21:30;14.70;98.00
3648;DHT22;1840;48.892;15.312;2023-07-22T00:23:58;14.70;97.60
3648;DHT22;1840;48.892;15.312;2023-07-22T00:26:26;14.50;97.90
3648;DHT22;1840;48.892;15.312;2023-07-22T00:28:55;14.60;97.70
3648;DHT22;1840;48.892;15.312;2023-07-22T00:31:23;14.60;97.40
3648;DHT22;1840;48.892;15.312;2023-07-22T00:33:52;14.60;97.30
3648;DHT22;1840;48.892;15.312;2023-07-22T00:36:20;14.40;97.50
3648;DHT22;1840;48.892;15.312;2023-07-22T00:38:48;14.50;97.20
3648;DHT22;1840;48.892;15.312;2023-07-22T00:41:16;14.60;97.00
3648;DHT22;1840;48.892;15.312;2023-07-22T00:43:44;14.60;96.70
3648;DHT22;1840;48.892;15.312;2023-07-22T00:46:12;14.50;96.30
3648;DHT22;1840;48.892;15.312;2023-07-22T00:48:41;14.50;96.30
3648;DHT22;1840;48.892;15.312;2023-07-22T00:51:11;14.60;96.10
3648;DHT22;1840;48.892;15.312;2023-07-22T00:53:39;14.60;95.90
3648;DHT22;1840;48.892;15.312;2023-07-22T00:56:07;14.50;96.00
3648;DHT22;1840;48.892;15.312;2023-07-22T00:58:35;14.50;95.90
3648;DHT22;1840;48.892;15.312;2023-07-22T01:01:03;14.70;95.60
3648;DHT22;1840;48.892;15.312;2023-07-22T01:03:32;14.60;95.50
3648;DHT22;1840;48.892;15.312;2023-07-22T01:06:00;14.70;95.40
3648;DHT22;1840;48.892;15.312;2023-07-22T01:08:29;14.60;95.00
3648;DHT22;1840;48.892;15.312;2023-07-22T01:10:57;14.30;95.30
3648;DHT22;1840;48.892;15.312;2023-07-22T01:13:26;14.30;95.10
3648;DHT22;1840;48.892;15.312;2023-07-22T01:15:55;14.40;95.00
3648;DHT22;1840;48.892;15.312;2023-07-22T01:18:23;14.30;95.30
3648;DHT22;1840;48.892;15.312;2023-07-22T01:20:51;14.40;95.20
3648;DHT22;1840;48.892;15.312;2023-07-22T01:23:21;14.40;94.90
3648;DHT22;1840;48.892;15.312;2023-07-22T01:25:49;14.60;94.80
3648;DHT22;1840;48.892;15.312;2023-07-22T01:28:18;14.50;94.60
3648;DHT22;1840;48.892;15.312;2023-07-22T01:30:48;14.50;94.50
3648;DHT22;1840;48.892;15.312;2023-07-22T01:33:16;14.30;94.90
3648;DHT22;1840;48.892;15.312;2023-07-22T01:35:44;14.40;94.80
3648;DHT22;1840;48.892;15.312;2023-07-22T01:38:12;14.60;94.60
3648;DHT22;1840;48.892;15.312;2023-07-22T01:40:42;14.40;94.70
3648;DHT22;1840;48.892;15.312;2023-07-22T01:43:10;14.50;94.70
3648;DHT22;1840;48.892;15.312;2023-07-22T01:45:38;14.60;94.60
3648;DHT22;1840;48.892;15.312;2023-07-22T01:48:06;14.70;94.40
3648;DHT22;1840;48.892;15.312;2023-07-22T01:50:34;14.70;94.60
3648;DHT22;1840;48.892;15.312;2023-07-22T01:53:03;14.70;94.60
3648;DHT22;1840;48.892;15.312;2023-07-22T01:55:32;14.70;94.70
3648;DHT22;1840;48.892;15.312;2023-07-22T01:58:02;14.50;94.80
3648;DHT22;1840;48.892;15.312;2023-07-22T02:00:30;14.60;94.90
3648;DHT22;1840;48.892;15.312;2023-07-22T02:02:58;14.70;94.80
3648;DHT22;1840;48.892;15.312;2023-07-22T02:05:26;14.70;94.70
3648;DHT22;1840;48.892;15.312;2023-07-22T02:07:56;14.80;94.50
3648;DHT22;1840;48.892;15.312;2023-07-22T02:10:24;14.80;94.40
3648;DHT22;1840;48.892;15.312;2023-07-22T02:12:52;14.90;94.30
3648;DHT22;1840;48.892;15.312;2023-07-22T02:15:22;14.80;94.70
3648;DHT22;1840;48.892;15.312;2023-07-22T02:17:51;14.60;94.50
3648;DHT22;1840;48.892;15.312;2023-07-22T02:20:19;14.70;94.50
3648;DHT22;1840;48.892;15.312;2023-07-22T02:22:47;14.70;94.30
3648;DHT22;1840;48.892;15.312;2023-07-22T02:25:15;14.70;94.30
3648;DHT22;1840;48.892;15.312;2023-07-22T02:27:43;14.50;94.40
3648;DHT22;1840;48.892;15.312;2023-07-22T02:30:11;14.50;94.10
3648;DHT22;1840;48.892;15.312;2023-07-22T02:32:41;14.30;94.30
3648;DHT22;1840;48.892;15.312;2023-07-22T02:35:09;14.30;94.30
3648;DHT22;1840;48.892;15.312;2023-07-22T02:37:38;14.30;94.30
3648;DHT22;1840;48.892;15.312;2023-07-22T02:40:07;14.30;94.30
3648;DHT22;1840;48.892;15.312;2023-07-22T02:42:37;14.30;94.20
3648;DHT22;1840;48.892;15.312;2023-07-22T02:45:06;14.30;94.30
3648;DHT22;1840;48.892;15.312;2023-07-22T02:47:35;14.30;94.20
3648;DHT22;1840;48.892;15.312;2023-07-22T02:50:06;14.20;94.10
3648;DHT22;1840;48.892;15.312;2023-07-22T02:52:34;14.20;94.30
3648;DHT22;1840;48.892;15.312;2023-07-22T02:55:07;14.20;94.10
3648;DHT22;1840;48.892;15.312;2023-07-22T02:57:38;14.10;94.00
3648;DHT22;1840;48.892;15.312;2023-07-22T03:00:07;13.90;94.40
3648;DHT22;1840;48.892;15.312;2023-07-22T03:02:39;13.70;94.50
3648;DHT22;1840;48.892;15.312;2023-07-22T03:05:09;13.70;94.50
3648;DHT22;1840;48.892;15.312;2023-07-22T03:07:38;13.60;94.60
3648;DHT22;1840;48.892;15.312;2023-07-22T03:10:07;13.50;94.80
3648;DHT22;1840;48.892;15.312;2023-07-22T03:12:36;13.60;94.60
3648;DHT22;1840;48.892;15.312;2023-07-22T03:15:05;13.60;94.30
3648;DHT22;1840;48.892;15.312;2023-07-22T03:17:35;13.50;94.40
3648;DHT22;1840;48.892;15.312;2023-07-22T03:20:04;13.50;94.40
3648;DHT22;1840;48.892;15.312;2023-07-22T03:22:38;13.50;94.40
3648;DHT22;1840;48.892;15.312;2023-07-22T03:25:07;13.60;94.10
3648;DHT22;1840;48.892;15.312;2023-07-22T03:27:37;13.50;94.30
3648;DHT22;1840;48.892;15.312;2023-07-22T03:30:06;13.50;94.20
3648;DHT22;1840;48.892;15.312;2023-07-22T03:32:36;13.50;94.20
3648;DHT22;1840;48.892;15.312;2023-07-22T03:35:05;13.40;94.20
3648;DHT22;1840;48.892;15.312;2023-07-22T03:37:40;13.50;94.20
3648;DHT22;1840;48.892;15.312;2023-07-22T03:40:09;13.40;94.10
3648;DHT22;1840;48.892;15.312;2023-07-22T03:42:44;13.40;94.10
3648;DHT22;1840;48.892;15.312;2023-07-22T03:45:12;13.40;94.10
3648;DHT22;1840;48.892;15.312;2023-07-22T03:47:40;13.40;94.10
3648;DHT22;1840;48.892;15.312;2023-07-22T03:50:08;13.40;94.20
3648;DHT22;1840;48.892;15.312;2023-07-22T03:52:38;13.40;94.20
3648;DHT22;1840;48.892;15.312;2023-07-22T03:55:07;13.30;94.20
3648;DHT22;1840;48.892;15.312;2023-07-22T03:57:35;13.40;94.30
3648;DHT22;1840;48.892;15.312;2023-07-22T04:00:04;13.10;94.40
3648;DHT22;1840;48.892;15.312;2023-07-22T04:02:32;13.10;94.60
3648;DHT22;1840;48.892;15.312;2023-07-22T04:05:02;13.20;94.60
3648;DHT22;1840;48.892;15.312;2023-07-22T04:07:30;13.40;94.50
3648;DHT22;1840;48.892;15.312;2023-07-22T04:09:59;13.40;94.30
3648;DHT22;1840;48.892;15.312;2023-07-22T04:12:27;13.30;94.40
3648;DHT22;1840;48.892;15.312;2023-07-22T04:14:57;13.40;94.30
3648;DHT22;1840;48.892;15.312;2023-07-22T04:17:25;13.40;94.30
3648;DHT22;1840;48.892;15.312;2023-07-22T04:19:53;13.40;94.30
3648;DHT22;1840;48.892;15.312;2023-07-22T04:22:21;13.40;94.20
3648;DHT22;1840;48.892;15.312;2023-07-22T04:24:49;13.40;94.30
3648;DHT22;1840;48.892;15.312;2023-07-22T04:27:19;13.40;94.10
3648;DHT22;1840;48.892;15.312;2023-07-22T04:29:48;13.40;94.30
3648;DHT22;1840;48.892;15.312;2023-07-22T04:32:15;13.30;94.40
3648;DHT22;1840;48.892;15.312;2023-07-22T04:34:43;13.30;94.30
3648;DHT22;1840;48.892;15.312;2023-07-22T04:37:11;13.30;94.70
3648;DHT22;1840;48.892;15.312;2023-07-22T04:39:40;13.20;94.50
3648;DHT22;1840;48.892;15.312;2023-07-22T04:42:08;13.20;94.80
3648;DHT22;1840;48.892;15.312;2023-07-22T04:44:37;13.40;94.80
3648;DHT22;1840;48.892;15.312;2023-07-22T04:47:07;13.40;94.50
3648;DHT22;1840;48.892;15.312;2023-07-22T04:49:35;13.50;94.50
3648;DHT22;1840;48.892;15.312;2023-07-22T04:52:04;13.50;94.40
3648;DHT22;1840;48.892;15.312;2023-07-22T04:54:33;13.40;94.80
3648;DHT22;1840;48.892;15.312;2023-07-22T04:57:01;13.50;94.40
3648;DHT22;1840;48.892;15.312;2023-07-22T04:59:29;13.50;94.50
3648;DHT22;1840;48.892;15.312;2023-07-22T05:01:58;13.60;94.40
3648;DHT22;1840;48.892;15.312;2023-07-22T05:04:27;13.60;94.40
3648;DHT22;1840;48.892;15.312;2023-07-22T05:06:55;13.70;94.30
3648;DHT22;1840;48.892;15.312;2023-07-22T05:09:23;13.70;94.20
3648;DHT22;1840;48.892;15.312;2023-07-22T05:11:51;13.80;94.30
3648;DHT22;1840;48.892;15.312;2023-07-22T05:14:20;13.80;94.40
3648;DHT22;1840;48.892;15.312;2023-07-22T05:16:48;13.70;94.10
3648;DHT22;1840;48.892;15.312;2023-07-22T05:19:18;13.70;94.00
3648;DHT22;1840;48.892;15.312;2023-07-22T05:21:47;13.90;93.80
3648;DHT22;1840;48.892;15.312;2023-07-22T05:24:15;14.00;93.80
3648;DHT22;1840;48.892;15.312;2023-07-22T05:26:43;14.00;93.40
3648;DHT22;1840;48.892;15.312;2023-07-22T05:29:29;14.10;93.40
3648;DHT22;1840;48.892;15.312;2023-07-22T05:31:57;14.40;93.20
3648;DHT22;1840;48.892;15.312;2023-07-22T05:34:26;14.40;93.10
3648;DHT22;1840;48.892;15.312;2023-07-22T05:36:55;14.60;92.80
3648;DHT22;1840;48.892;15.312;2023-07-22T05:39:22;14.70;92.60
3648;DHT22;1840;48.892;15.312;2023-07-22T05:41:51;14.70;92.30
3648;DHT22;1840;48.892;15.312;2023-07-22T05:44:20;14.90;92.40
3648;DHT22;1840;48.892;15.312;2023-07-22T05:46:49;15.00;92.00
3648;DHT22;1840;48.892;15.312;2023-07-22T05:49:17;14.80;91.60
3648;DHT22;1840;48.892;15.312;2023-07-22T05:51:46;15.00;92.00
3648;DHT22;1840;48.892;15.312;2023-07-22T05:54:14;15.30;91.20
3648;DHT22;1840;48.892;15.312;2023-07-22T05:56:42;15.40;91.10
3648;DHT22;1840;48.892;15.312;2023-07-22T05:59:10;15.70;90.50
3648;DHT22;1840;48.892;15.312;2023-07-22T06:01:38;16.00;90.30
3648;DHT22;1840;48.892;15.312;2023-07-22T06:04:07;16.20;88.90
3648;DHT22;1840;48.892;15.312;2023-07-22T06:06:35;16.10;88.70
3648;DHT22;1840;48.892;15.312;2023-07-22T06:09:04;15.70;90.00
3648;DHT22;1840;48.892;15.312;2023-07-22T06:11:32;16.00;89.30
3648;DHT22;1840;48.892;15.312;2023-07-22T06:14:00;16.60;88.40
3648;DHT22;1840;48.892;15.312;2023-07-22T06:16:29;17.00;87.10
3648;DHT22;1840;48.892;15.312;2023-07-22T06:18:57;16.80;85.80
3648;DHT22;1840;48.892;15.312;2023-07-22T06:21:25;16.50;86.00
3648;DHT22;1840;48.892;15.312;2023-07-22T06:23:53;16.40;86.80
3648;DHT22;1840;48.892;15.312;2023-07-22T06:26:22;16.30;87.30
3648;DHT22;1840;48.892;15.312;2023-07-22T06:28:50;16.60;85.80
3648;DHT22;1840;48.892;15.312;2023-07-22T06:31:18;16.60;86.00
3648;DHT22;1840;48.892;15.312;2023-07-22T06:33:46;16.70;86.00
3648;DHT22;1840;48.892;15.312;2023-07-22T06:36:14;16.30;86.30
3648;DHT22;1840;48.892;15.312;2023-07-22T06:38:43;16.60;86.40
3648;DHT22;1840;48.892;15.312;2023-07-22T06:41:11;16.90;84.80
3648;DHT22;1840;48.892;15.312;2023-07-22T06:43:40;17.00;83.80
3648;DHT22;1840;48.892;15.312;2023-07-22T06:46:08;17.00;83.20
3648;DHT22;1840;48.892;15.312;2023-07-22T06:48:36;17.10;84.00
3648;DHT22;1840;48.892;15.312;2023-07-22T06:51:05;17.10;83.30
3648;DHT22;1840;48.892;15.312;2023-07-22T06:53:34;17.10;81.80
3648;DHT22;1840;48.892;15.312;2023-07-22T06:56:02;17.00;83.00
3648;DHT22;1840;48.892;15.312;2023-07-22T06:58:30;17.20;83.20
3648;DHT22;1840;48.892;15.312;2023-07-22T07:00:59;17.50;82.70
3648;DHT22;1840;48.892;15.312;2023-07-22T07:03:27;17.50;82.10
3648;DHT22;1840;48.892;15.312;2023-07-22T07:05:56;17.40;81.70
3648;DHT22;1840;48.892;15.312;2023-07-22T07:08:24;17.50;82.70
3648;DHT22;1840;48.892;15.312;2023-07-22T07:10:52;17.60;81.50
3648;DHT22;1840;48.892;15.312;2023-07-22T07:13:22;17.50;81.80
3648;DHT22;1840;48.892;15.312;2023-07-22T07:15:50;17.30;81.50
3648;DHT22;1840;48.892;15.312;2023-07-22T07:18:20;17.30;80.90
3648;DHT22;1840;48.892;15.312;2023-07-22T07:20:48;17.40;81.00
3648;DHT22;1840;48.892;15.312;2023-07-22T07:23:17;17.30;80.70
3648;DHT22;1840;48.892;15.312;2023-07-22T07:25:45;17.40;80.80
3648;DHT22;1840;48.892;15.312;2023-07-22T07:28:13;17.50;80.10
3648;DHT22;1840;48.892;15.312;2023-07-22T07:30:41;17.70;79.90
3648;DHT22;1840;48.892;15.312;2023-07-22T07:33:09;17.90;81.00
3648;DHT22;1840;48.892;15.312;2023-07-22T07:35:39;17.70;79.80
3648;DHT22;1840;48.892;15.312;2023-07-22T07:38:07;17.50;79.50
3648;DHT22;1840;48.892;15.312;2023-07-22T07:40:35;17.70;79.70
3648;DHT22;1840;48.892;15.312;2023-07-22T07:43:03;17.80;79.70
3648;DHT22;1840;48.892;15.312;2023-07-22T07:45:31;18.00;79.30
3648;DHT22;1840;48.892;15.312;2023-07-22T07:47:59;18.20;78.70
3648;DHT22;1840;48.892;15.312;2023-07-22T07:50:27;18.30;77.80
3648;DHT22;1840;48.892;15.312;2023-07-22T07:52:56;17.90;78.90
3648;DHT22;1840;48.892;15.312;2023-07-22T07:55:25;18.00;78.20
3648;DHT22;1840;48.892;15.312;2023-07-22T07:57:53;18.20;77.10
3648;DHT22;1840;48.892;15.312;2023-07-22T08:00:21;18.30;76.70
3648;DHT22;1840;48.892;15.312;2023-07-22T08:02:49;18.30;76.90
3648;DHT22;1840;48.892;15.312;2023-07-22T08:05:17;18.30;77.90
3648;DHT22;1840;48.892;15.312;2023-07-22T08:07:45;18.30;76.70
3648;DHT22;1840;48.892;15.312;2023-07-22T08:10:15;18.30;77.10
3648;DHT22;1840;48.892;15.312;2023-07-22T08:12:43;18.30;77.00
3648;DHT22;1840;48.892;15.312;2023-07-22T08:15:11;18.50;77.40
3648;DHT22;1840;48.892;15.312;2023-07-22T08:17:39;18.70;77.10
3648;DHT22;1840;48.892;15.312;2023-07-22T08:20:08;18.80;75.00
3648;DHT22;1840;48.892;15.312;2023-07-22T08:22:37;18.80;75.40
3648;DHT22;1840;48.892;15.312;2023-07-22T08:25:05;19.00;75.90
3648;DHT22;1840;48.892;15.312;2023-07-22T08:27:35;19.00;74.80
3648;DHT22;1840;48.892;15.312;2023-07-22T08:30:04;19.00;75.20
3648;DHT22;1840;48.892;15.312;2023-07-22T08:32:32;18.90;74.10
3648;DHT22;1840;48.892;15.312;2023-07-22T08:35:00;18.50;74.60
3648;DHT22;1840;48.892;15.312;2023-07-22T08:37:29;18.70;76.90
3648;DHT22;1840;48.892;15.312;2023-07-22T08:39:57;18.90;75.90
3648;DHT22;1840;48.892;15.312;2023-07-22T08:42:26;19.10;74.30
3648;DHT22;1840;48.892;15.312;2023-07-22T08:44:57;18.90;73.80
3648;DHT22;1840;48.892;15.312;2023-07-22T08:47:29;19.00;74.40
3648;DHT22;1840;48.892;15.312;2023-07-22T08:49:59;18.80;74.70
3648;DHT22;1840;48.892;15.312;2023-07-22T08:52:29;18.80;74.00
3648;DHT22;1840;48.892;15.312;2023-07-22T08:54:57;18.90;74.40
3648;DHT22;1840;48.892;15.312;2023-07-22T08:57:27;19.20;74.40
3648;DHT22;1840;48.892;15.312;2023-07-22T08:59:58;19.40;73.70
3648;DHT22;1840;48.892;15.312;2023-07-22T09:02:27;19.80;73.70
3648;DHT22;1840;48.892;15.312;2023-07-22T09:04:56;19.80;74.50
3648;DHT22;1840;48.892;15.312;2023-07-22T09:07:25;20.20;73.20
3648;DHT22;1840;48.892;15.312;2023-07-22T09:09:53;20.00;69.90
3648;DHT22;1840;48.892;15.312;2023-07-22T09:12:22;19.50;71.40
3648;DHT22;1840;48.892;15.312;2023-07-22T09:14:51;19.50;72.40
3648;DHT22;1840;48.892;15.312;2023-07-22T09:17:21;19.50;72.50
3648;DHT22;1840;48.892;15.312;2023-07-22T09:19:52;19.60;71.60
3648;DHT22;1840;48.892;15.312;2023-07-22T09:22:24;19.40;71.50
3648;DHT22;1840;48.892;15.312;2023-07-22T09:25:12;19.40;71.30
3648;DHT22;1840;48.892;15.312;2023-07-22T09:27:40;19.30;70.70
3648;DHT22;1840;48.892;15.312;2023-07-22T09:30:21;19.10;72.90
3648;DHT22;1840;48.892;15.312;2023-07-22T09:32:51;19.00;70.70
3648;DHT22;1840;48.892;15.312;2023-07-22T09:35:19;19.00;71.90
3648;DHT22;1840;48.892;15.312;2023-07-22T09:37:48;19.30;71.70
3648;DHT22;1840;48.892;15.312;2023-07-22T09:40:17;19.70;71.30
3648;DHT22;1840;48.892;15.312;2023-07-22T09:42:47;20.10;71.90
3648;DHT22;1840;48.892;15.312;2023-07-22T09:45:15;20.20;70.80
3648;DHT22;1840;48.892;15.312;2023-07-22T09:47:46;19.90;70.50
3648;DHT22;1840;48.892;15.312;2023-07-22T09:50:17;19.70;70.90
3648;DHT22;1840;48.892;15.312;2023-07-22T09:52:47;19.70;70.30
3648;DHT22;1840;48.892;15.312;2023-07-22T09:55:16;19.80;70.60
3648;DHT22;1840;48.892;15.312;2023-07-22T09:57:46;20.00;69.70
3648;DHT22;1840;48.892;15.312;2023-07-22T10:00:16;20.00;69.90
3648;DHT22;1840;48.892;15.312;2023-07-22T10:02:47;20.20;69.80
3648;DHT22;1840;48.892;15.312;2023-07-22T10:05:18;20.20;70.60
3648;DHT22;1840;48.892;15.312;2023-07-22T10:07:48;20.40;71.80
3648;DHT22;1840;48.892;15.312;2023-07-22T10:10:18;20.30;70.20
3648;DHT22;1840;48.892;15.312;2023-07-22T10:12:46;20.10;70.30
3648;DHT22;1840;48.892;15.312;2023-07-22T10:15:16;20.20;70.80
3648;DHT22;1840;48.892;15.312;2023-07-22T10:17:45;20.20;70.20
3648;DHT22;1840;48.892;15.312;2023-07-22T10:20:13;20.40;69.70
3648;DHT22;1840;48.892;15.312;2023-07-22T10:22:45;20.30;70.30
3648;DHT22;1840;48.892;15.312;2023-07-22T10:25:14;20.60;70.20
3648;DHT22;1840;48.892;15.312;2023-07-22T10:27:43;20.90;69.60
3648;DHT22;1840;48.892;15.312;2023-07-22T10:30:13;21.10;70.50
3648;DHT22;1840;48.892;15.312;2023-07-22T10:32:42;21.10;68.30
3648;DHT22;1840;48.892;15.312;2023-07-22T10:35:21;20.90;67.80
3648;DHT22;1840;48.892;15.312;2023-07-22T10:37:52;20.80;68.90
3648;DHT22;1840;48.892;15.312;2023-07-22T10:40:26;21.10;69.20
3648;DHT22;1840;48.892;15.312;2023-07-22T10:42:58;21.20;67.50
3648;DHT22;1840;48.892;15.312;2023-07-22T10:45:28;21.00;68.20
3648;DHT22;1840;48.892;15.312;2023-07-22T10:48:05;20.50;68.30
3648;DHT22;1840;48.892;15.312;2023-07-22T10:50:41;20.40;69.30
3648;DHT22;1840;48.892;15.312;2023-07-22T10:53:12;20.80;67.70
3648;DHT22;1840;48.892;15.312;2023-07-22T10:56:03;20.90;67.70
3648;DHT22;1840;48.892;15.312;2023-07-22T10:58:31;21.40;66.80
3648;DHT22;1840;48.892;15.312;2023-07-22T11:01:22;21.80;65.00
3648;DHT22;1840;48.892;15.312;2023-07-22T11:04:16;22.30;64.70
3648;DHT22;1840;48.892;15.312;2023-07-22T11:06:53;22.20;66.30
3648;DHT22;1840;48.892;15.312;2023-07-22T11:09:39;21.90;64.80
3648;DHT22;1840;48.892;15.312;2023-07-22T11:12:13;21.60;64.60
3648;DHT22;1840;48.892;15.312;2023-07-22T11:14:47;21.40;65.60
3648;DHT22;1840;48.892;15.312;2023-07-22T11:17:16;21.10;65.80
3648;DHT22;1840;48.892;15.312;2023-07-22T11:19:44;21.00;65.60
3648;DHT22;1840;48.892;15.312;2023-07-22T11:22:13;21.00;64.10
3648;DHT22;1840;48.892;15.312;2023-07-22T11:24:43;21.10;64.40
3648;DHT22;1840;48.892;15.312;2023-07-22T11:27:12;21.10;64.40
3648;DHT22;1840;48.892;15.312;2023-07-22T11:29:40;21.20;67.00
3648;DHT22;1840;48.892;15.312;2023-07-22T11:32:15;21.50;65.60
3648;DHT22;1840;48.892;15.312;2023-07-22T11:34:43;21.80;64.40
3648;DHT22;1840;48.892;15.312;2023-07-22T11:37:12;22.00;63.60
3648;DHT22;1840;48.892;15.312;2023-07-22T11:39:43;22.50;62.40
3648;DHT22;1840;48.892;15.312;2023-07-22T11:42:12;22.60;61.40
3648;DHT22;1840;48.892;15.312;2023-07-22T11:44:41;22.70;61.40
3648;DHT22;1840;48.892;15.312;2023-07-22T11:47:09;22.80;60.30
3648;DHT22;1840;48.892;15.312;2023-07-22T11:49:40;22.80;62.00
3648;DHT22;1840;48.892;15.312;2023-07-22T11:52:10;23.10;60.80
3648;DHT22;1840;48.892;15.312;2023-07-22T11:54:39;23.30;58.90
3648;DHT22;1840;48.892;15.312;2023-07-22T11:57:13;23.50;61.00
3648;DHT22;1840;48.892;15.312;2023-07-22T11:59:44;23.70;58.40
3648;DHT22;1840;48.892;15.312;2023-07-22T12:02:13;23.60;59.10
3648;DHT22;1840;48.892;15.312;2023-07-22T12:04:42;23.30;59.10
3648;DHT22;1840;48.892;15.312;2023-07-22T12:07:22;23.20;61.00
3648;DHT22;1840;48.892;15.312;2023-07-22T12:09:52;23.20;59.60
3648;DHT22;1840;48.892;15.312;2023-07-22T12:12:21;23.30;60.70
3648;DHT22;1840;48.892;15.312;2023-07-22T12:15:02;23.50;60.00
3648;DHT22;1840;48.892;15.312;2023-07-22T12:17:43;23.30;58.90
3648;DHT22;1840;48.892;15.312;2023-07-22T12:20:12;23.00;58.50
3648;DHT22;1840;48.892;15.312;2023-07-22T12:22:41;22.40;58.30
3648;DHT22;1840;48.892;15.312;2023-07-22T12:25:10;22.20;59.00
3648;DHT22;1840;48.892;15.312;2023-07-22T12:27:39;21.80;58.50
3648;DHT22;1840;48.892;15.312;2023-07-22T12:30:08;21.70;59.70
3648;DHT22;1840;48.892;15.312;2023-07-22T12:32:36;21.80;60.00
3648;DHT22;1840;48.892;15.312;2023-07-22T12:35:05;22.10;60.40
3648;DHT22;1840;48.892;15.312;2023-07-22T12:37:34;22.00;58.60
3648;DHT22;1840;48.892;15.312;2023-07-22T12:40:02;21.90;60.20
3648;DHT22;1840;48.892;15.312;2023-07-22T12:42:32;22.00;58.90
3648;DHT22;1840;48.892;15.312;2023-07-22T12:45:02;22.00;58.20
3648;DHT22;1840;48.892;15.312;2023-07-22T12:47:30;22.00;59.10
3648;DHT22;1840;48.892;15.312;2023-07-22T12:49:59;22.40;60.90
3648;DHT22;1840;48.892;15.312;2023-07-22T12:52:27;22.80;59.50
3648;DHT22;1840;48.892;15.312;2023-07-22T12:54:55;23.10;58.10
3648;DHT22;1840;48.892;15.312;2023-07-22T12:57:23;23.10;59.60
3648;DHT22;1840;48.892;15.312;2023-07-22T12:59:51;22.80;57.90
3648;DHT22;1840;48.892;15.312;2023-07-22T13:02:20;22.40;58.20
3648;DHT22;1840;48.892;15.312;2023-07-22T13:04:49;22.10;58.30
3648;DHT22;1840;48.892;15.312;2023-07-22T13:07:17;22.00;57.80
3648;DHT22;1840;48.892;15.312;2023-07-22T13:09:45;22.10;61.10
3648;DHT22;1840;48.892;15.312;2023-07-22T13:12:15;22.30;58.60
3648;DHT22;1840;48.892;15.312;2023-07-22T13:14:43;22.50;59.40
3648;DHT22;1840;48.892;15.312;2023-07-22T13:17:11;22.40;58.00
3648;DHT22;1840;48.892;15.312;2023-07-22T13:19:40;22.20;58.30
3648;DHT22;1840;48.892;15.312;2023-07-22T13:22:09;22.10;57.90
3648;DHT22;1840;48.892;15.312;2023-07-22T13:24:37;21.90;59.30
3648;DHT22;1840;48.892;15.312;2023-07-22T13:27:05;22.00;58.10
3648;DHT22;1840;48.892;15.312;2023-07-22T13:29:34;21.80;59.90
3648;DHT22;1840;48.892;15.312;2023-07-22T13:32:02;22.20;58.70
3648;DHT22;1840;48.892;15.312;2023-07-22T13:34:30;22.10;58.10
3648;DHT22;1840;48.892;15.312;2023-07-22T13:37:00;21.90;58.10
3648;DHT22;1840;48.892;15.312;2023-07-22T13:39:29;21.90;57.60
3648;DHT22;1840;48.892;15.312;2023-07-22T13:41:57;21.70;57.70
3648;DHT22;1840;48.892;15.312;2023-07-22T13:44:25;21.80;58.60
3648;DHT22;1840;48.892;15.312;2023-07-22T13:46:53;22.20;58.20
3648;DHT22;1840;48.892;15.312;2023-07-22T13:49:21;22.30;57.70
3648;DHT22;1840;48.892;15.312;2023-07-22T13:51:49;22.60;58.50
3648;DHT22;1840;48.892;15.312;2023-07-22T13:54:19;22.90;58.00
3648;DHT22;1840;48.892;15.312;2023-07-22T13:56:47;22.90;56.60
3648;DHT22;1840;48.892;15.312;2023-07-22T13:59:15;23.00;57.60
3648;DHT22;1840;48.892;15.312;2023-07-22T14:01:43;23.00;57.50
3648;DHT22;1840;48.892;15.312;2023-07-22T14:04:11;23.20;58.30
3648;DHT22;1840;48.892;15.312;2023-07-22T14:06:39;23.50;55.80
3648;DHT22;1840;48.892;15.312;2023-07-22T14:09:07;23.60;56.80
3648;DHT22;1840;48.892;15.312;2023-07-22T14:11:36;23.20;55.00
3648;DHT22;1840;48.892;15.312;2023-07-22T14:14:08;23.20;56.30
3648;DHT22;1840;48.892;15.312;2023-07-22T14:16:36;23.40;57.30
3648;DHT22;1840;48.892;15.312;2023-07-22T14:19:04;23.30;57.40
3648;DHT22;1840;48.892;15.312;2023-07-22T14:21:32;23.20;57.20
3648;DHT22;1840;48.892;15.312;2023-07-22T14:24:00;23.10;57.60
3648;DHT22;1840;48.892;15.312;2023-07-22T14:26:28;23.60;57.80
3648;DHT22;1840;48.892;15.312;2023-07-22T14:28:57;23.70;55.80
3648;DHT22;1840;48.892;15.312;2023-07-22T14:31:25;23.60;56.60
3648;DHT22;1840;48.892;15.312;2023-07-22T14:33:54;23.70;56.80
3648;DHT22;1840;48.892;15.312;2023-07-22T14:36:22;23.80;56.70
3648;DHT22;1840;48.892;15.312;2023-07-22T14:38:51;23.90;57.20
3648;DHT22;1840;48.892;15.312;2023-07-22T14:41:19;23.90;55.20
3648;DHT22;1840;48.892;15.312;2023-07-22T14:43:47;23.70;55.50
3648;DHT22;1840;48.892;15.312;2023-07-22T14:46:16;23.30;55.80
3648;DHT22;1840;48.892;15.312;2023-07-22T14:48:44;23.20;56.20
3648;DHT22;1840;48.892;15.312;2023-07-22T14:51:13;23.20;55.20
3648;DHT22;1840;48.892;15.312;2023-07-22T14:53:41;22.80;56.30
3648;DHT22;1840;48.892;15.312;2023-07-22T14:56:09;22.80;56.40
3648;DHT22;1840;48.892;15.312;2023-07-22T14:58:37;22.90;57.20
3648;DHT22;1840;48.892;15.312;2023-07-22T15:01:05;23.30;56.70
3648;DHT22;1840;48.892;15.312;2023-07-22T15:03:37;23.60;56.00
3648;DHT22;1840;48.892;15.312;2023-07-22T15:06:05;23.70;55.40
3648;DHT22;1840;48.892;15.312;2023-07-22T15:08:34;23.50;56.30
3648;DHT22;1840;48.892;15.312;2023-07-22T15:11:02;23.20;55.90
3648;DHT22;1840;48.892;15.312;2023-07-22T15:13:29;22.90;57.10
3648;DHT22;1840;48.892;15.312;2023-07-22T15:15:58;22.60;58.20
3648;DHT22;1840;48.892;15.312;2023-07-22T15:18:26;22.50;56.80
3648;DHT22;1840;48.892;15.312;2023-07-22T15:20:55;22.30;57.40
3648;DHT22;1840;48.892;15.312;2023-07-22T15:23:23;22.30;57.50
3648;DHT22;1840;48.892;15.312;2023-07-22T15:25:51;22.40;57.90
3648;DHT22;1840;48.892;15.312;2023-07-22T15:28:19;22.30;57.00
3648;DHT22;1840;48.892;15.312;2023-07-22T15:30:47;22.40;57.50
3648;DHT22;1840;48.892;15.312;2023-07-22T15:33:16;22.40;58.20
3648;DHT22;1840;48.892;15.312;2023-07-22T15:35:44;22.20;57.90
3648;DHT22;1840;48.892;15.312;2023-07-22T15:38:13;22.00;58.60
3648;DHT22;1840;48.892;15.312;2023-07-22T15:40:41;21.90;58.30
3648;DHT22;1840;48.892;15.312;2023-07-22T15:43:09;21.90;58.20
3648;DHT22;1840;48.892;15.312;2023-07-22T15:45:37;22.00;59.20
3648;DHT22;1840;48.892;15.312;2023-07-22T15:48:05;22.00;58.00
3648;DHT22;1840;48.892;15.312;2023-07-22T15:50:33;22.10;58.10
3648;DHT22;1840;48.892;15.312;2023-07-22T15:53:02;22.10;59.00
3648;DHT22;1840;48.892;15.312;2023-07-22T15:55:31;22.20;58.70
3648;DHT22;1840;48.892;15.312;2023-07-22T15:57:59;22.30;58.90